Time;durP1;ratioP1;P1;durP2;ratioP2;P2;SDS_P1;SDS_P2;PMS_P1;PMS_P2;Temp;Humidity;BMP_temperature;BMP_pressure;BME280_temperature;BME280_humidity;BME280_pressure;Samples;Min_cycle;Max_cycle;Signal;HPM_P1;HPM_P2
2022/02/16 00:00:43;;;;;;;;;;;11.00;99.90;;;;;;4997066;28;19981;-92
2022/02/16 00:03:08;;;;;;;;;;;11.00;99.90;;;;;;4996858;28;20353;-93
2022/02/16 00:05:36;;;;;;;;;;;11.00;99.90;;;;;;4997720;28;19909;-92
2022/02/16 00:08:02;;;;;;;;;;;11.00;99.90;;;;;;4998562;28;19909;-91
2022/02/16 00:10:28;;;;;;;;;;;11.00;99.90;;;;;;4996800;28;20297;-92
2022/02/16 00:12:54;;;;;;;;;;;11.00;99.90;;;;;;4997249;28;19913;-92
2022/02/16 00:15:23;;;;;;;;;;;11.00;99.90;;;;;;4997306;28;19909;-92
2022/02/16 00:17:51;;;;;;;;;;;11.00;99.90;;;;;;4996131;28;19909;-91
2022/02/16 00:20:17;;;;;;;;;;;11.00;99.90;;;;;;4996265;28;19972;-91
2022/02/16 00:22:43;;;;;;;;;;;11.00;99.90;;;;;;4997406;28;20359;-93
2022/02/16 00:25:12;;;;;;;;;;;11.10;99.90;;;;;;4999462;28;19952;-92
2022/02/16 00:27:38;;;;;;;;;;;11.00;99.90;;;;;;5001448;28;20209;-91
2022/02/16 00:30:04;;;;;;;;;;;11.10;99.90;;;;;;5014551;28;20092;-92
2022/02/16 00:32:30;;;;;;;;;;;11.10;99.90;;;;;;4996908;28;19948;-91
2022/02/16 00:34:55;;;;;;;;;;;11.10;99.90;;;;;;5002563;28;20277;-91
2022/02/16 00:37:25;;;;;;;;;;;11.10;99.90;;;;;;5021833;28;19906;-92
2022/02/16 00:39:51;;;;;;;;;;;11.10;99.90;;;;;;5000495;28;19921;-91
2022/02/16 00:42:19;;;;;;;;;;;11.10;99.90;;;;;;5017753;28;19909;-91
2022/02/16 00:44:44;;;;;;;;;;;11.10;99.90;;;;;;5011106;28;19931;-91
2022/02/16 00:47:10;;;;;;;;;;;11.10;99.90;;;;;;5023592;28;20296;-91
2022/02/16 00:49:36;;;;;;;;;;;11.10;99.90;;;;;;5032368;28;19962;-92
2022/02/16 00:52:37;;;;;;;;;;;;;;;;;;;;;
2022/02/16 00:55:06;;;;;;;;;;;11.20;99.90;;;;;;5033864;28;19915;-94
2022/02/16 00:57:31;;;;;;;;;;;11.20;99.90;;;;;;5031180;28;19909;-95
2022/02/16 00:59:59;;;;;;;;;;;11.20;99.90;;;;;;5031125;28;19917;-91
2022/02/16 01:02:40;;;;;;;;;;;;;;;;;;;;;
2022/02/16 01:05:07;;;;;;;;;;;11.20;99.90;;;;;;5031641;28;19910;-92
2022/02/16 01:07:39;;;;;;;;;;;11.10;99.90;;;;;;5030643;28;20008;-96
2022/02/16 01:10:08;;;;;;;;;;;11.10;99.90;;;;;;5015412;28;19959;-92
2022/02/16 01:12:36;;;;;;;;;;;11.10;99.90;;;;;;5028290;28;19909;-95
2022/02/16 01:15:11;;;;;;;;;;;11.10;99.90;;;;;;5032180;28;19913;-92
2022/02/16 01:17:45;;;;;;;;;;;11.10;99.90;;;;;;5035189;28;19959;-94
2022/02/16 01:20:16;;;;;;;;;;;11.10;99.90;;;;;;5031347;28;20374;-93
2022/02/16 01:22:42;;;;;;;;;;;11.10;99.90;;;;;;5028023;28;19937;-92
2022/02/16 01:25:12;;;;;;;;;;;11.10;99.90;;;;;;5015921;28;20357;-93
2022/02/16 01:30:33;;;;;;;;;;;11.10;99.90;;;;;;5025875;28;19951;-92
2022/02/16 01:33:01;;;;;;;;;;;11.10;99.90;;;;;;5029266;28;19909;-91
2022/02/16 01:35:37;;;;;;;;;;;11.10;99.90;;;;;;5016013;28;20023;-93
2022/02/16 01:38:03;;;;;;;;;;;11.10;99.90;;;;;;5029530;28;19910;-93
2022/02/16 01:40:31;;;;;;;;;;;11.10;99.90;;;;;;5030530;28;20293;-92
2022/02/16 01:43:00;;;;;;;;;;;11.20;99.90;;;;;;5033282;28;19916;-91
2022/02/16 01:45:26;;;;;;;;;;;11.20;99.90;;;;;;5031413;28;19915;-92
2022/02/16 01:47:52;;;;;;;;;;;11.20;99.90;;;;;;5028807;28;19928;-92
2022/02/16 01:50:30;;;;;;;;;;;11.20;99.90;;;;;;5017521;28;19916;-90
2022/02/16 01:52:56;;;;;;;;;;;11.20;99.90;;;;;;5013384;28;20373;-92
2022/02/16 01:55:21;;;;;;;;;;;11.20;99.90;;;;;;5017080;28;19933;-96
2022/02/16 01:57:52;;;;;;;;;;;11.20;99.90;;;;;;5013579;28;19909;-91
2022/02/16 02:00:18;;;;;;;;;;;11.20;99.90;;;;;;5015468;28;19976;-91
2022/02/16 02:02:43;;;;;;;;;;;11.20;99.90;;;;;;5018331;28;19893;-91
2022/02/16 02:05:11;;;;;;;;;;;11.20;99.90;;;;;;5016526;28;19936;-91
2022/02/16 02:07:37;;;;;;;;;;;11.30;99.90;;;;;;5032285;28;19909;-91
2022/02/16 02:10:03;;;;;;;;;;;11.30;99.90;;;;;;5031222;28;19910;-91
2022/02/16 02:12:29;;;;;;;;;;;11.30;99.90;;;;;;5025506;28;19909;-92
2022/02/16 02:14:54;;;;;;;;;;;11.20;99.90;;;;;;5018070;28;20004;-92
2022/02/16 02:17:20;;;;;;;;;;;11.20;99.90;;;;;;5023185;28;19936;-94
2022/02/16 02:19:45;;;;;;;;;;;11.20;99.90;;;;;;5028327;28;19925;-95
2022/02/16 02:22:11;;;;;;;;;;;11.20;99.90;;;;;;5029803;28;19913;-92
2022/02/16 02:24:37;;;;;;;;;;;11.20;99.90;;;;;;5030876;28;19996;-91
2022/02/16 02:27:04;;;;;;;;;;;11.30;99.90;;;;;;5031083;28;19916;-92
2022/02/16 02:29:31;;;;;;;;;;;11.30;99.90;;;;;;5019797;28;19956;-96
2022/02/16 02:31:58;;;;;;;;;;;11.20;99.90;;;;;;5027177;28;20117;-91
2022/02/16 02:34:26;;;;;;;;;;;11.20;99.90;;;;;;5011131;28;19917;-93
2022/02/16 02:36:54;;;;;;;;;;;11.30;99.90;;;;;;5014486;28;19956;-93
2022/02/16 02:39:33;;;;;;;;;;;11.30;99.90;;;;;;5011103;28;19927;-92
2022/02/16 02:42:18;;;;;;;;;;;;;;;;;;;;;
2022/02/16 02:44:53;;;;;;;;;;;11.30;99.90;;;;;;5035018;28;20000;-94
2022/02/16 02:47:47;;;;;;;;;;;11.30;99.90;;;;;;5001721;28;20016;-96
2022/02/16 02:53:02;;;;;;;;;;;11.30;99.90;;;;;;5012155;28;19920;-91
2022/02/16 02:55:33;;;;;;;;;;;11.30;99.90;;;;;;4991536;28;19939;-93
2022/02/16 02:58:05;;;;;;;;;;;11.30;99.90;;;;;;5008281;28;19913;-93
2022/02/16 03:00:34;;;;;;;;;;;11.30;99.90;;;;;;5009957;28;19973;-92
2022/02/16 03:02:59;;;;;;;;;;;11.40;99.90;;;;;;5007187;28;19914;-91
2022/02/16 03:05:25;;;;;;;;;;;11.40;99.90;;;;;;5002430;28;19910;-90
2022/02/16 03:08:06;;;;;;;;;;;11.40;99.90;;;;;;5018354;28;19909;-92
2022/02/16 03:10:33;;;;;;;;;;;11.40;99.90;;;;;;5002771;28;19932;-94
2022/02/16 03:13:23;;;;;;;;;;;11.50;99.90;;;;;;5003744;28;20020;-94
2022/02/16 03:15:55;;;;;;;;;;;11.50;99.90;;;;;;4999863;28;19909;-93
2022/02/16 03:21:29;;;;;;;;;;;11.50;99.90;;;;;;4968986;28;19918;-93
2022/02/16 03:24:08;;;;;;;;;;;11.50;99.90;;;;;;5001401;28;20055;-92
2022/02/16 03:26:33;;;;;;;;;;;11.50;99.90;;;;;;4999717;28;19977;-92
2022/02/16 03:28:59;;;;;;;;;;;11.50;99.90;;;;;;5000186;28;19914;-92
2022/02/16 03:31:25;;;;;;;;;;;11.50;99.90;;;;;;5000514;28;19914;-90
2022/02/16 03:33:50;;;;;;;;;;;11.50;99.90;;;;;;5003968;28;20000;-91
2022/02/16 03:36:16;;;;;;;;;;;11.50;99.90;;;;;;4998889;28;19921;-92
2022/02/16 03:38:42;;;;;;;;;;;11.50;99.90;;;;;;4998160;28;19910;-91
2022/02/16 03:41:07;;;;;;;;;;;11.50;99.90;;;;;;5016027;28;20004;-92
2022/02/16 03:43:33;;;;;;;;;;;11.50;99.90;;;;;;5015078;28;19964;-92
2022/02/16 03:45:59;;;;;;;;;;;11.50;99.90;;;;;;4994443;28;19922;-90
2022/02/16 03:48:24;;;;;;;;;;;11.50;99.90;;;;;;5015503;28;19913;-91
2022/02/16 03:50:50;;;;;;;;;;;11.50;99.90;;;;;;5005997;28;19913;-91
2022/02/16 03:53:17;;;;;;;;;;;11.50;99.90;;;;;;4995400;28;19961;-92
2022/02/16 03:55:43;;;;;;;;;;;11.50;99.90;;;;;;5009739;28;19995;-92
2022/02/16 03:58:11;;;;;;;;;;;11.60;99.90;;;;;;5009894;28;20030;-95
2022/02/16 04:00:46;;;;;;;;;;;11.50;99.90;;;;;;5005667;28;19928;-94
2022/02/16 04:03:11;;;;;;;;;;;11.50;99.90;;;;;;5013757;28;19913;-94
2022/02/16 04:05:42;;;;;;;;;;;11.50;99.90;;;;;;5017019;28;19909;-92
2022/02/16 04:08:16;;;;;;;;;;;11.60;99.90;;;;;;5008168;28;19920;-92
2022/02/16 04:10:53;;;;;;;;;;;11.50;99.90;;;;;;5013643;28;19917;-93
2022/02/16 04:13:18;;;;;;;;;;;11.50;99.90;;;;;;5018687;28;19909;-93
2022/02/16 04:15:52;;;;;;;;;;;11.50;99.90;;;;;;5005661;28;19967;-94
2022/02/16 04:18:17;;;;;;;;;;;11.60;99.90;;;;;;5017245;28;19909;-92
2022/02/16 04:20:43;;;;;;;;;;;11.50;99.90;;;;;;5015139;28;19917;-92
2022/02/16 04:23:13;;;;;;;;;;;11.50;99.90;;;;;;5015079;28;20405;-92
2022/02/16 04:25:38;;;;;;;;;;;11.50;99.90;;;;;;5014966;28;19909;-93
2022/02/16 04:28:05;;;;;;;;;;;11.50;99.90;;;;;;5017303;28;20387;-92
2022/02/16 04:30:34;;;;;;;;;;;11.50;99.90;;;;;;4999040;28;19910;-93
2022/02/16 04:33:02;;;;;;;;;;;11.50;99.90;;;;;;4997998;28;19945;-93
2022/02/16 04:35:30;;;;;;;;;;;11.50;99.90;;;;;;5015342;28;20289;-94
2022/02/16 04:37:59;;;;;;;;;;;11.50;99.90;;;;;;5014437;28;20255;-94
2022/02/16 04:40:27;;;;;;;;;;;11.50;99.90;;;;;;5015549;28;19929;-95
2022/02/16 04:42:52;;;;;;;;;;;11.50;99.90;;;;;;5005679;28;20012;-93
2022/02/16 04:45:21;;;;;;;;;;;11.50;99.90;;;;;;4996953;28;20007;-93
2022/02/16 04:47:47;;;;;;;;;;;11.50;99.90;;;;;;5016788;28;19925;-94
2022/02/16 04:50:33;;;;;;;;;;;11.50;99.90;;;;;;5016001;28;20389;-94
2022/02/16 04:53:07;;;;;;;;;;;11.50;99.90;;;;;;5017389;28;20258;-93
2022/02/16 04:55:43;;;;;;;;;;;11.50;99.90;;;;;;5010833;28;19931;-95
2022/02/16 04:58:08;;;;;;;;;;;11.50;99.90;;;;;;5021078;28;19909;-94
2022/02/16 05:00:37;;;;;;;;;;;11.50;99.90;;;;;;5035843;28;19971;-94
2022/02/16 05:06:27;;;;;;;;;;;11.60;99.90;;;;;;4985904;28;19916;-94
2022/02/16 05:08:57;;;;;;;;;;;11.60;99.90;;;;;;5018736;28;20000;-92
2022/02/16 05:11:56;;;;;;;;;;;11.60;99.90;;;;;;5027953;28;19921;-93
2022/02/16 05:14:35;;;;;;;;;;;11.50;99.90;;;;;;5033003;28;19916;-93
2022/02/16 05:17:01;;;;;;;;;;;11.60;99.90;;;;;;5017099;28;19935;-93
2022/02/16 05:19:26;;;;;;;;;;;11.70;99.90;;;;;;5016083;28;20003;-93
2022/02/16 05:22:07;;;;;;;;;;;11.60;99.90;;;;;;5015910;28;20004;-94
2022/02/16 05:24:33;;;;;;;;;;;11.60;99.90;;;;;;5033778;28;20393;-94
2022/02/16 05:27:03;;;;;;;;;;;11.70;99.90;;;;;;5019007;28;19951;-92
2022/02/16 05:29:40;;;;;;;;;;;11.60;99.90;;;;;;5015912;28;20344;-93
2022/02/16 05:32:06;;;;;;;;;;;11.70;99.90;;;;;;5024346;28;19909;-91
2022/02/16 05:34:34;;;;;;;;;;;11.70;99.90;;;;;;5024637;28;20016;-92
2022/02/16 05:37:07;;;;;;;;;;;11.70;99.90;;;;;;5028418;28;20409;-93
2022/02/16 05:39:35;;;;;;;;;;;11.70;99.90;;;;;;5014925;28;20297;-94
2022/02/16 05:42:11;;;;;;;;;;;11.80;99.90;;;;;;5029100;28;20423;-91
2022/02/16 05:44:37;;;;;;;;;;;11.80;99.90;;;;;;5035046;28;20064;-91
2022/02/16 05:47:02;;;;;;;;;;;11.80;99.90;;;;;;5031287;28;20217;-93
2022/02/16 05:49:28;;;;;;;;;;;11.80;99.90;;;;;;5031213;28;19905;-94
2022/02/16 05:51:54;;;;;;;;;;;11.80;99.90;;;;;;5022719;28;20456;-92
2022/02/16 05:54:22;;;;;;;;;;;11.80;99.90;;;;;;5031164;28;20012;-93
2022/02/16 05:56:50;;;;;;;;;;;11.90;99.90;;;;;;5031506;28;20055;-94
2022/02/16 05:59:16;;;;;;;;;;;11.90;99.90;;;;;;5031167;28;19909;-94
2022/02/16 06:01:42;;;;;;;;;;;11.90;99.90;;;;;;5030467;28;20435;-94
2022/02/16 06:04:08;;;;;;;;;;;11.90;99.90;;;;;;5028883;28;20389;-92
2022/02/16 06:06:34;;;;;;;;;;;11.90;99.90;;;;;;5017688;28;19955;-91
2022/02/16 06:09:00;;;;;;;;;;;11.90;99.90;;;;;;5022779;28;19932;-93
2022/02/16 06:11:25;;;;;;;;;;;11.90;99.90;;;;;;5016584;28;20378;-96
2022/02/16 06:13:52;;;;;;;;;;;11.90;99.90;;;;;;5014716;28;19917;-91
2022/02/16 06:16:18;;;;;;;;;;;11.90;99.90;;;;;;5033368;28;19931;-91
2022/02/16 06:21:52;;;;;;;;;;;12.00;99.90;;;;;;4978438;28;19934;-90
2022/02/16 06:24:21;;;;;;;;;;;11.90;99.90;;;;;;5021560;28;19921;-91
2022/02/16 06:26:47;;;;;;;;;;;11.90;99.90;;;;;;5021146;28;20411;-90
2022/02/16 06:29:15;;;;;;;;;;;12.00;99.90;;;;;;5015983;28;19913;-90
2022/02/16 06:31:41;;;;;;;;;;;11.90;99.90;;;;;;5033125;28;19955;-90
2022/02/16 06:34:07;;;;;;;;;;;11.90;99.90;;;;;;5031482;28;19913;-90
2022/02/16 06:36:33;;;;;;;;;;;11.90;99.90;;;;;;5035182;28;19893;-95
2022/02/16 06:38:58;;;;;;;;;;;11.90;99.90;;;;;;5018061;28;19893;-90
2022/02/16 06:41:24;;;;;;;;;;;12.00;99.90;;;;;;5034459;28;19921;-91
2022/02/16 06:43:49;;;;;;;;;;;12.00;99.90;;;;;;5017012;28;20397;-90
2022/02/16 06:46:15;;;;;;;;;;;11.90;99.90;;;;;;5016327;28;19924;-91
2022/02/16 06:48:41;;;;;;;;;;;12.00;99.90;;;;;;5021505;28;19944;-91
2022/02/16 06:51:06;;;;;;;;;;;11.90;99.90;;;;;;5020336;28;19933;-91
2022/02/16 06:53:32;;;;;;;;;;;11.90;99.90;;;;;;5012472;28;19909;-91
2022/02/16 06:55:58;;;;;;;;;;;11.90;99.90;;;;;;5012410;28;19916;-91
2022/02/16 06:58:24;;;;;;;;;;;11.90;99.90;;;;;;5014808;28;19914;-96
2022/02/16 07:00:49;;;;;;;;;;;11.90;99.90;;;;;;5011169;28;19945;-94
2022/02/16 07:03:17;;;;;;;;;;;11.90;99.90;;;;;;5015545;28;19906;-92
2022/02/16 07:05:42;;;;;;;;;;;11.90;99.90;;;;;;5013692;28;19909;-91
2022/02/16 07:08:08;;;;;;;;;;;11.90;99.90;;;;;;5013004;28;19983;-91
2022/02/16 07:10:34;;;;;;;;;;;12.00;99.90;;;;;;5015063;28;20251;-91
2022/02/16 07:13:00;;;;;;;;;;;12.00;99.90;;;;;;5013442;28;20295;-93
2022/02/16 07:15:26;;;;;;;;;;;12.00;99.90;;;;;;5013253;28;19910;-92
2022/02/16 07:17:55;;;;;;;;;;;12.00;99.90;;;;;;5012582;28;20286;-92
2022/02/16 07:20:24;;;;;;;;;;;12.00;99.90;;;;;;5012446;28;19921;-92
2022/02/16 07:22:49;;;;;;;;;;;12.00;99.90;;;;;;5012450;28;19917;-94
2022/02/16 07:25:16;;;;;;;;;;;12.00;99.90;;;;;;5012993;28;19913;-93
2022/02/16 07:27:41;;;;;;;;;;;12.00;99.90;;;;;;5012328;28;20008;-93
2022/02/16 07:30:10;;;;;;;;;;;12.00;99.90;;;;;;5012430;28;20339;-94
2022/02/16 07:32:39;;;;;;;;;;;12.10;99.90;;;;;;5011583;28;20370;-91
2022/02/16 07:35:08;;;;;;;;;;;12.10;99.90;;;;;;5012688;28;20412;-91
2022/02/16 07:37:34;;;;;;;;;;;12.00;99.90;;;;;;5015783;28;19910;-91
2022/02/16 08:43:25;;;;;;;;;;;12.20;99.90;;;;;;5019390;28;19914;-95
2022/02/16 08:45:51;;;;;;;;;;;12.30;99.90;;;;;;5016319;28;19916;-95
2022/02/16 08:48:17;;;;;;;;;;;12.30;99.90;;;;;;5016584;28;19913;-95
2022/02/16 08:50:50;;;;;;;;;;;12.30;99.90;;;;;;5016503;28;19965;-95
2022/02/16 08:53:17;;;;;;;;;;;12.30;99.90;;;;;;5016507;28;19910;-95
2022/02/16 08:55:43;;;;;;;;;;;12.30;99.90;;;;;;5015870;28;19948;-94
2022/02/16 08:58:12;;;;;;;;;;;12.30;99.90;;;;;;5016015;28;19913;-94
2022/02/16 09:00:39;;;;;;;;;;;12.30;99.90;;;;;;5016051;28;19918;-95
2022/02/16 09:03:04;;;;;;;;;;;12.30;99.90;;;;;;5015836;28;19909;-93
2022/02/16 09:05:30;;;;;;;;;;;12.40;99.90;;;;;;5015693;28;19917;-94
2022/02/16 09:07:56;;;;;;;;;;;12.40;99.90;;;;;;5015753;28;19963;-94
2022/02/16 09:10:21;;;;;;;;;;;12.50;99.90;;;;;;5015970;28;19944;-94
2022/02/16 09:20:00;;;;;;;;;;;12.40;99.90;;;;;;4934387;29;19918;-96
2022/02/16 09:32:45;;;;;;;;;;;;;;;;;;;;;
2022/02/16 09:42:04;;;;;;;;;;;12.30;99.90;;;;;;4870331;29;19927;-96
2022/02/16 09:51:50;;;;;;;;;;;;;;;;;;;;;
2022/02/16 10:06:56;;;;;;;;;;;12.40;99.90;;;;;;4837614;29;19913;-96
2022/02/16 10:13:09;;;;;;;;;;;;;;;;;;;;;
2022/02/16 10:18:24;;;;;;;;;;;12.30;99.90;;;;;;4903045;29;20002;-95
2022/02/16 10:20:52;;;;;;;;;;;12.30;99.90;;;;;;4932239;29;20017;-95
2022/02/16 10:23:38;;;;;;;;;;;12.40;99.90;;;;;;4916496;29;19951;-94
2022/02/16 10:26:21;;;;;;;;;;;12.40;99.90;;;;;;4915974;29;20010;-95
2022/02/16 10:29:00;;;;;;;;;;;;;;;;;;;;;
2022/02/16 10:31:30;;;;;;;;;;;12.40;99.90;;;;;;5010504;28;19914;-95
2022/02/16 10:33:56;;;;;;;;;;;12.40;99.90;;;;;;4994553;28;19910;-96
2022/02/16 10:36:25;;;;;;;;;;;12.50;99.90;;;;;;4994849;28;20381;-94
2022/02/16 10:38:55;;;;;;;;;;;12.50;99.90;;;;;;4994580;28;19916;-95
2022/02/16 10:41:30;;;;;;;;;;;12.50;99.90;;;;;;4991055;28;19918;-96
2022/02/16 10:43:55;;;;;;;;;;;12.60;99.90;;;;;;4981365;28;20285;-95
2022/02/16 10:46:39;;;;;;;;;;;12.50;99.90;;;;;;4994648;28;19996;-96
2022/02/16 10:49:10;;;;;;;;;;;12.50;99.90;;;;;;4994403;28;19953;-95
2022/02/16 10:51:35;;;;;;;;;;;12.50;99.90;;;;;;4994495;28;20028;-95
2022/02/16 10:54:17;;;;;;;;;;;12.60;99.90;;;;;;4994239;28;20401;-94
2022/02/16 10:56:44;;;;;;;;;;;12.70;99.90;;;;;;4994529;28;20155;-95
2022/02/16 10:59:10;;;;;;;;;;;12.70;99.90;;;;;;4994680;28;20310;-94
2022/02/16 11:01:37;;;;;;;;;;;12.70;99.90;;;;;;4994334;28;19917;-96
2022/02/16 11:04:04;;;;;;;;;;;12.70;99.90;;;;;;4994365;28;19910;-95
2022/02/16 11:06:31;;;;;;;;;;;12.80;99.90;;;;;;4993852;28;19916;-93
2022/02/16 11:08:58;;;;;;;;;;;12.80;99.90;;;;;;4995217;28;19914;-94
2022/02/16 11:11:25;;;;;;;;;;;12.80;99.90;;;;;;4998129;28;19913;-94
2022/02/16 11:13:51;;;;;;;;;;;12.80;99.90;;;;;;4998045;28;20019;-94
2022/02/16 11:16:17;;;;;;;;;;;12.80;99.90;;;;;;4998013;28;19964;-94
2022/02/16 11:18:43;;;;;;;;;;;12.90;99.90;;;;;;4998192;28;19909;-94
2022/02/16 11:21:10;;;;;;;;;;;12.90;99.90;;;;;;4997731;28;19917;-93
2022/02/16 11:23:42;;;;;;;;;;;13.00;99.90;;;;;;4997755;28;19909;-93
2022/02/16 11:26:26;;;;;;;;;;;12.90;99.90;;;;;;4997703;28;19916;-93
2022/02/16 11:28:51;;;;;;;;;;;12.90;99.90;;;;;;5014642;28;19916;-94
2022/02/16 11:31:27;;;;;;;;;;;12.90;99.90;;;;;;4997582;28;19910;-93
2022/02/16 11:34:11;;;;;;;;;;;12.90;99.90;;;;;;4997950;28;19909;-93
2022/02/16 11:37:06;;;;;;;;;;;12.80;99.90;;;;;;4997896;28;19909;-94
2022/02/16 11:39:42;;;;;;;;;;;12.80;99.90;;;;;;4988756;28;20366;-92
2022/02/16 11:42:18;;;;;;;;;;;12.80;99.90;;;;;;5008900;28;20059;-93
2022/02/16 11:44:52;;;;;;;;;;;12.80;99.90;;;;;;4998852;28;20398;-95
2022/02/16 11:47:33;;;;;;;;;;;12.70;99.90;;;;;;4997532;28;19932;-94
2022/02/16 11:50:14;;;;;;;;;;;12.70;99.90;;;;;;4997132;28;19965;-93
2022/02/16 11:52:40;;;;;;;;;;;12.70;99.90;;;;;;4997084;28;20225;-94
2022/02/16 11:55:10;;;;;;;;;;;12.70;99.90;;;;;;4997715;28;19989;-95
2022/02/16 11:57:42;;;;;;;;;;;12.70;99.90;;;;;;4999096;28;19917;-95
2022/02/16 12:00:11;;;;;;;;;;;12.70;99.90;;;;;;4999583;28;19929;-96
2022/02/16 12:03:05;;;;;;;;;;;12.60;99.90;;;;;;4998766;28;19917;-94
2022/02/16 12:05:47;;;;;;;;;;;12.60;99.90;;;;;;4993192;28;19916;-96
2022/02/16 12:08:13;;;;;;;;;;;12.70;99.90;;;;;;4998281;28;19955;-95
2022/02/16 12:10:43;;;;;;;;;;;12.70;99.90;;;;;;4998594;28;19909;-95
2022/02/16 12:13:11;;;;;;;;;;;12.70;99.90;;;;;;4997610;28;20404;-95
2022/02/16 12:15:37;;;;;;;;;;;12.70;99.90;;;;;;4997336;28;19909;-94
2022/02/16 12:18:03;;;;;;;;;;;12.80;99.90;;;;;;4998328;28;19916;-94
2022/02/16 12:20:29;;;;;;;;;;;12.80;99.90;;;;;;4996784;28;20246;-95
2022/02/16 12:23:04;;;;;;;;;;;12.90;99.90;;;;;;4998498;28;20241;-94
2022/02/16 12:25:30;;;;;;;;;;;12.90;99.90;;;;;;4997691;28;20173;-94
2022/02/16 12:28:00;;;;;;;;;;;12.90;99.90;;;;;;4998010;28;19919;-94
2022/02/16 12:30:37;;;;;;;;;;;13.00;99.90;;;;;;4997726;28;19909;-94
2022/02/16 12:33:16;;;;;;;;;;;13.00;99.90;;;;;;4996987;28;20406;-94
2022/02/16 12:35:42;;;;;;;;;;;13.00;99.90;;;;;;4997676;28;20358;-95
2022/02/16 12:38:09;;;;;;;;;;;12.90;99.90;;;;;;4997161;28;19932;-95
2022/02/16 12:40:37;;;;;;;;;;;12.90;99.90;;;;;;4996544;28;19944;-95
2022/02/16 12:43:12;;;;;;;;;;;12.90;99.90;;;;;;5003189;28;19921;-94
2022/02/16 12:45:37;;;;;;;;;;;12.90;99.90;;;;;;5023937;28;20370;-95
2022/02/16 12:48:05;;;;;;;;;;;13.00;99.90;;;;;;4993349;28;19917;-94
2022/02/16 12:50:31;;;;;;;;;;;13.00;99.90;;;;;;5013299;28;20395;-95
2022/02/16 12:53:04;;;;;;;;;;;13.10;99.90;;;;;;5012854;28;19945;-96
2022/02/16 12:55:44;;;;;;;;;;;13.00;99.90;;;;;;5013631;28;19979;-94
2022/02/16 12:58:13;;;;;;;;;;;12.90;99.90;;;;;;5013093;28;19949;-94
2022/02/16 13:00:47;;;;;;;;;;;12.90;99.90;;;;;;5012643;28;20298;-94
2022/02/16 13:03:13;;;;;;;;;;;12.90;99.90;;;;;;5014174;28;20105;-95
2022/02/16 13:05:42;;;;;;;;;;;12.90;99.90;;;;;;5015077;28;19941;-93
2022/02/16 13:08:09;;;;;;;;;;;12.90;99.90;;;;;;5013998;28;19909;-95
2022/02/16 13:10:36;;;;;;;;;;;12.80;99.90;;;;;;5013897;28;19917;-94
2022/02/16 13:13:17;;;;;;;;;;;12.80;99.90;;;;;;5013083;28;20297;-94
2022/02/16 13:15:45;;;;;;;;;;;12.90;99.90;;;;;;5012985;28;20052;-93
2022/02/16 13:18:18;;;;;;;;;;;12.90;99.90;;;;;;5013613;28;19971;-94
2022/02/16 13:20:44;;;;;;;;;;;13.00;99.90;;;;;;5013478;28;20434;-94
2022/02/16 13:23:17;;;;;;;;;;;13.00;99.90;;;;;;5012855;28;19933;-94
2022/02/16 13:25:45;;;;;;;;;;;13.00;99.90;;;;;;5011819;28;19910;-95
2022/02/16 13:28:19;;;;;;;;;;;13.00;99.90;;;;;;5012749;28;20408;-94
2022/02/16 13:30:45;;;;;;;;;;;13.00;99.90;;;;;;5013810;28;20457;-94
2022/02/16 13:33:21;;;;;;;;;;;13.10;99.90;;;;;;5022359;28;19909;-93
2022/02/16 13:35:48;;;;;;;;;;;13.10;99.90;;;;;;5015562;28;19913;-93
2022/02/16 13:38:32;;;;;;;;;;;13.10;99.90;;;;;;5012009;28;20345;-93
2022/02/16 13:41:08;;;;;;;;;;;13.10;99.90;;;;;;4994873;28;19960;-94
2022/02/16 13:43:44;;;;;;;;;;;13.10;99.90;;;;;;5012175;28;19951;-94
2022/02/16 13:46:09;;;;;;;;;;;13.10;99.90;;;;;;5013402;28;19935;-94
2022/02/16 13:48:35;;;;;;;;;;;13.10;99.90;;;;;;5012237;28;19983;-94
2022/02/16 13:51:08;;;;;;;;;;;13.10;99.90;;;;;;5012104;28;20381;-94
2022/02/16 13:53:34;;;;;;;;;;;13.20;99.90;;;;;;5011804;28;19910;-93
2022/02/16 13:56:00;;;;;;;;;;;13.20;99.90;;;;;;5011573;28;19921;-95
2022/02/16 13:58:27;;;;;;;;;;;13.20;99.90;;;;;;5012146;28;19918;-95
2022/02/16 14:01:06;;;;;;;;;;;13.20;99.90;;;;;;5011878;28;19925;-93
2022/02/16 14:03:39;;;;;;;;;;;13.20;99.90;;;;;;5011727;28;19940;-96
2022/02/16 14:06:08;;;;;;;;;;;13.10;99.90;;;;;;5011753;28;19956;-95
2022/02/16 14:08:36;;;;;;;;;;;13.00;99.90;;;;;;5012551;28;19940;-94
2022/02/16 14:11:05;;;;;;;;;;;12.90;99.90;;;;;;5012928;28;20008;-94
2022/02/16 14:13:32;;;;;;;;;;;12.90;99.90;;;;;;5013495;28;19910;-94
2022/02/16 14:15:58;;;;;;;;;;;12.90;99.90;;;;;;5015601;28;19913;-95
2022/02/16 14:18:24;;;;;;;;;;;12.80;99.90;;;;;;5015930;28;19956;-94
2022/02/16 14:20:50;;;;;;;;;;;12.80;99.90;;;;;;5013518;28;19945;-93
2022/02/16 14:23:16;;;;;;;;;;;12.80;99.90;;;;;;5018153;28;19960;-94
2022/02/16 14:25:42;;;;;;;;;;;12.80;99.90;;;;;;5018133;28;19914;-94
2022/02/16 14:28:07;;;;;;;;;;;12.80;99.90;;;;;;5022419;28;19983;-94
2022/02/16 14:30:36;;;;;;;;;;;12.70;99.90;;;;;;5025977;28;19940;-93
2022/02/16 14:33:02;;;;;;;;;;;12.70;99.90;;;;;;5022182;28;19910;-94
2022/02/16 14:35:28;;;;;;;;;;;12.70;99.90;;;;;;5019137;28;19909;-94
2022/02/16 14:37:53;;;;;;;;;;;12.80;99.90;;;;;;5020206;28;19913;-94
2022/02/16 14:40:19;;;;;;;;;;;12.70;99.90;;;;;;5020577;28;19918;-94
2022/02/16 14:42:45;;;;;;;;;;;12.70;99.90;;;;;;5021747;28;19928;-94
2022/02/16 14:45:11;;;;;;;;;;;12.70;99.90;;;;;;5020065;28;19949;-93
2022/02/16 14:47:38;;;;;;;;;;;12.60;99.90;;;;;;5022709;28;19979;-93
2022/02/16 14:50:04;;;;;;;;;;;12.60;99.90;;;;;;5017847;28;19910;-94
2022/02/16 14:52:32;;;;;;;;;;;12.60;99.90;;;;;;5021324;28;19909;-95
2022/02/16 14:54:58;;;;;;;;;;;12.60;99.90;;;;;;5026046;28;19969;-93
2022/02/16 14:57:23;;;;;;;;;;;12.60;99.90;;;;;;5020971;28;19916;-93
2022/02/16 14:59:50;;;;;;;;;;;12.60;99.90;;;;;;5014335;28;20367;-95
2022/02/16 15:02:15;;;;;;;;;;;12.50;99.90;;;;;;5012028;28;19941;-94
2022/02/16 15:04:41;;;;;;;;;;;12.50;99.90;;;;;;5011469;28;19917;-94
2022/02/16 15:07:07;;;;;;;;;;;12.50;99.90;;;;;;5011377;28;19914;-94
2022/02/16 15:09:34;;;;;;;;;;;12.50;99.90;;;;;;5011339;28;20155;-94
2022/02/16 15:12:00;;;;;;;;;;;12.50;99.90;;;;;;5011275;28;19925;-94
2022/02/16 15:14:25;;;;;;;;;;;12.60;99.90;;;;;;5010571;28;19909;-93
2022/02/16 15:16:51;;;;;;;;;;;12.60;99.90;;;;;;5010706;28;19909;-94
2022/02/16 15:19:17;;;;;;;;;;;12.60;99.90;;;;;;5004318;28;19916;-93
2022/02/16 15:21:43;;;;;;;;;;;12.70;99.90;;;;;;5011035;28;19918;-93
2022/02/16 15:24:09;;;;;;;;;;;12.70;99.90;;;;;;5021859;28;20462;-93
2022/02/16 15:26:35;;;;;;;;;;;12.70;99.90;;;;;;5013903;28;19914;-93
2022/02/16 15:29:02;;;;;;;;;;;12.60;99.90;;;;;;5010766;28;20397;-94
2022/02/16 15:31:28;;;;;;;;;;;12.60;99.90;;;;;;5010318;28;19956;-93
2022/02/16 15:33:56;;;;;;;;;;;12.50;99.90;;;;;;5010489;28;19952;-94
2022/02/16 15:36:25;;;;;;;;;;;12.50;99.90;;;;;;5010522;28;19997;-94
2022/02/16 15:38:53;;;;;;;;;;;12.60;99.90;;;;;;5010819;28;19925;-94
2022/02/16 15:41:19;;;;;;;;;;;12.60;99.90;;;;;;5010611;28;19925;-94
2022/02/16 15:43:45;;;;;;;;;;;12.50;99.90;;;;;;5011059;28;19922;-93
2022/02/16 15:46:14;;;;;;;;;;;12.60;99.90;;;;;;5010106;28;20279;-92
2022/02/16 15:48:40;;;;;;;;;;;12.50;99.90;;;;;;5010822;28;19909;-92
2022/02/16 15:51:06;;;;;;;;;;;12.50;99.90;;;;;;5009810;28;20306;-93
2022/02/16 15:53:32;;;;;;;;;;;12.50;99.90;;;;;;5009740;28;19914;-93
2022/02/16 15:55:58;;;;;;;;;;;12.50;99.90;;;;;;5010783;28;20454;-92
2022/02/16 15:58:23;;;;;;;;;;;12.50;99.90;;;;;;5013582;28;19916;-92
2022/02/16 16:00:49;;;;;;;;;;;12.60;99.90;;;;;;5013832;28;19937;-92
2022/02/16 16:03:15;;;;;;;;;;;12.60;99.90;;;;;;5014429;28;19916;-92
2022/02/16 16:05:41;;;;;;;;;;;12.60;99.90;;;;;;5013912;28;20293;-93
2022/02/16 16:08:06;;;;;;;;;;;12.60;99.90;;;;;;5014592;28;19910;-92
2022/02/16 16:10:33;;;;;;;;;;;12.60;99.90;;;;;;5015560;28;19925;-93
2022/02/16 16:12:59;;;;;;;;;;;12.60;99.90;;;;;;5013954;28;19956;-93
2022/02/16 16:15:24;;;;;;;;;;;12.60;99.90;;;;;;5014837;28;19945;-93
2022/02/16 16:17:50;;;;;;;;;;;12.60;99.90;;;;;;5016739;28;19909;-93
2022/02/16 16:20:16;;;;;;;;;;;12.70;99.90;;;;;;5013541;28;19922;-92
2022/02/16 16:22:41;;;;;;;;;;;12.60;99.90;;;;;;5016404;28;20362;-93
2022/02/16 16:25:07;;;;;;;;;;;12.70;99.90;;;;;;5013715;28;19916;-93
2022/02/16 16:27:34;;;;;;;;;;;12.70;99.90;;;;;;5015733;28;20161;-96
2022/02/16 16:30:00;;;;;;;;;;;12.70;99.90;;;;;;5019188;28;20005;-93
2022/02/16 16:32:25;;;;;;;;;;;12.70;99.90;;;;;;5019071;28;19909;-93
2022/02/16 16:34:51;;;;;;;;;;;12.70;99.90;;;;;;5016132;28;20298;-93
2022/02/16 16:37:17;;;;;;;;;;;12.60;99.90;;;;;;5016610;28;19909;-92
2022/02/16 16:39:42;;;;;;;;;;;12.60;99.90;;;;;;5012567;28;19909;-93
2022/02/16 16:42:08;;;;;;;;;;;12.60;99.90;;;;;;5014625;28;20341;-93